KJAXKSAV

Guest
Details From KJAX - Jacksonville Intl
To KSAV - Savannah Hilton Head Intl
Flight Number -
Tags Generated
Created
Modified
Stats Distance 102 nm / 189 km
Max Altitude 0 ft / 0 m
Waypoints 2
Social Downloads 0
Likes 0
Share VATSIM

Download

Looking for another format? Having issues loading an existing format? Contact us
Advertisement - Login to hide

Notes

Generated

Route

KJAX KSAV

ID Type Via Altitude Latitude Longitude Leg Dist Tot Dist Heading (true) Name
O KJAX APT - 0 ft / 0 m 30.49216˚ -81.70084˚ - 0 nm - -
O KSAV APT - 0 ft / 0 m 32.13582˚ -81.20014˚ 102 nm 102 nm 14° / 15° -

Altitude Profile

Advertisement - Login to hide

KJAX

Details ICAO KJAX (JAX)
Name Jacksonville Intl
Region United States
Timezone America/New_York (UTC-5.0)
Stats Elevation 30 ft / 9 m (AMSL)
Location 30.493037° -81.688273°
Runways 2
Magnetic Variation 6.465° W

METAR

KJAX 120956Z 22003KT 8SM CLR 07/06 A2999 RMK AO2 SLP156 T00720061 $

Decode

TAF

TAF KJAX 120520Z 1206/1306 24005KT P6SM SKC FM121500 26018G28KT P6SM FEW050 FM130000 29008KT P6SM SKC

Decode

Departure Runways

ID Width Length Bearing (true) Bearing (mag) Surface Threshold Offset Overrun Length
08 151 ft / 46 m 9,989 ft / 3,045 m 70.45° 76.91° Concrete 0 ft / 0 m 400 ft / 122 m
14 151 ft / 46 m 7,703 ft / 2,348 m 130.70° 137.16° Concrete 0 ft / 0 m 200 ft / 61 m
26 151 ft / 46 m 9,989 ft / 3,045 m 250.47° 256.93° Concrete 0 ft / 0 m 400 ft / 122 m
32 151 ft / 46 m 7,703 ft / 2,348 m 310.70° 317.16° Concrete 0 ft / 0 m 200 ft / 61 m

KSAV

Details ICAO KSAV (SAV)
Name Savannah Hilton Head Intl
Region United States
Timezone America/New_York (UTC-5.0)
Stats Elevation 51 ft / 16 m (AMSL)
Location 32.127403° -81.201878°
Runways 2
Magnetic Variation 7.026° W

METAR

KSAV 120953Z AUTO 23006KT 10SM CLR 06/04 A2994 RMK AO2 SLP139 T00610039

Decode

TAF

TAF KSAV 120534Z 1206/1306 22009KT P6SM FEW250 FM121600 27017G24KT P6SM FEW050 FM130000 29011KT P6SM SKC

Decode

Destination Runways

ID Width Length Bearing (true) Bearing (mag) Surface Threshold Offset Overrun Length
01 150 ft / 46 m 7,024 ft / 2,141 m 359.63° 6.66° Concrete 0 ft / 0 m 0 ft / 0 m
10 150 ft / 46 m 9,334 ft / 2,845 m 90.61° 97.64° Concrete 0 ft / 0 m 1,000 ft / 305 m
19 150 ft / 46 m 7,024 ft / 2,141 m 179.63° 186.66° Concrete 0 ft / 0 m 0 ft / 0 m
28 150 ft / 46 m 9,334 ft / 2,845 m 270.63° 277.66° Concrete 0 ft / 0 m 150 ft / 46 m

Approach Navaids

Runway Type Ident Frequency Range Bearing (true) Bearing (mag) Slope Elevation
01 Localiser ITPV 111.90 MHz 18 nm / 33 km 359.63° 6.65° - 51 ft / 16 m (AMSL)
01 Glidescope ITPV 111.90 MHz 10 nm / 19 km 359.63° 6.65° 3.00° 31 ft / 9 m (AMSL)
10 Localiser ISAV 109.90 MHz 18 nm / 33 km 90.62° 97.65° - 51 ft / 16 m (AMSL)
10 Glidescope ISAV 109.90 MHz 10 nm / 19 km 90.62° 97.65° 3.00° 21 ft / 6 m (AMSL)

Popular Alternatives